createdAt,value
2018-09-10T00:00:24.933Z,90.15
2018-09-10T00:01:24.852Z,91.11
2018-09-10T00:02:24.776Z,90.91
2018-09-10T00:03:24.708Z,91.49
2018-09-10T00:04:24.622Z,90.53
2018-09-10T00:05:24.550Z,91.97
2018-09-10T00:06:24.473Z,91.87
2018-09-10T00:07:24.400Z,91.11
2018-09-10T00:08:24.320Z,91.58
2018-09-10T00:09:24.254Z,91.97
2018-09-10T00:10:24.166Z,91.49
2018-09-10T00:11:24.089Z,92.06
2018-09-10T00:12:24.014Z,92.06
2018-09-10T00:13:23.941Z,90.72
2018-09-10T00:14:23.862Z,92.92
2018-09-10T00:15:23.789Z,92.83
2018-09-10T00:16:23.714Z,91.68
2018-09-10T00:17:23.648Z,92.44
2018-09-10T00:18:23.553Z,92.44
2018-09-10T00:19:23.481Z,92.06
2018-09-10T00:20:23.405Z,91.30
2018-09-10T00:21:23.329Z,91.77
2018-09-10T00:22:23.254Z,90.53
2018-09-10T00:23:23.174Z,91.87
2018-09-10T00:24:23.198Z,91.49
2018-09-10T00:25:23.024Z,91.39
2018-09-10T00:26:22.944Z,91.30
2018-09-10T00:27:22.869Z,91.58
2018-09-10T00:28:22.795Z,91.97
2018-09-10T00:29:22.719Z,91.97
2018-09-10T00:30:22.639Z,91.11
2018-09-10T00:31:22.563Z,91.87
2018-09-10T00:32:22.490Z,89.76
2018-09-10T00:33:22.409Z,91.39
2018-09-10T00:34:22.333Z,90.15
2018-09-10T00:35:22.255Z,91.58
2018-09-10T00:36:22.197Z,91.49
2018-09-10T00:37:22.108Z,91.97
2018-09-10T00:38:22.037Z,93.02
2018-09-10T00:39:21.954Z,92.92
2018-09-10T00:40:21.880Z,92.63
2018-09-10T00:41:21.804Z,92.83
2018-09-10T00:42:21.723Z,92.44
2018-09-10T00:43:21.646Z,91.97
2018-09-10T00:44:21.568Z,90.82
2018-09-10T00:45:21.505Z,91.97
2018-09-10T00:46:21.416Z,92.25
2018-09-10T00:47:21.348Z,92.16
2018-09-10T00:48:21.268Z,91.87
2018-09-10T00:49:21.192Z,91.20
2018-09-10T00:50:21.113Z,92.54
2018-09-10T00:51:21.037Z,93.21
2018-09-10T00:52:20.961Z,92.73
2018-09-10T00:53:20.881Z,92.54
2018-09-10T00:54:20.805Z,93.02
2018-09-10T00:55:20.727Z,92.83
2018-09-10T00:56:20.651Z,92.16
2018-09-10T00:57:20.576Z,92.06
2018-09-10T00:58:20.500Z,92.06
2018-09-10T00:59:20.428Z,92.83
2018-09-10T01:00:20.350Z,93.40
2018-09-10T01:01:20.274Z,93.02
2018-09-10T01:02:20.194Z,92.63
2018-09-10T01:03:20.117Z,92.44
2018-09-10T01:04:20.040Z,92.44
2018-09-10T01:05:19.971Z,92.25
2018-09-10T01:06:19.891Z,92.06
2018-09-10T01:07:19.808Z,91.77
2018-09-10T01:08:19.734Z,92.35
2018-09-10T01:09:19.664Z,92.06
2018-09-10T01:10:19.581Z,92.30
2018-09-10T01:11:19.511Z,91.16
2018-09-10T01:12:19.433Z,90.96
2018-09-10T01:13:19.360Z,92.30
2018-09-10T01:14:19.282Z,92.02
2018-09-10T01:15:19.200Z,92.02
2018-09-10T01:16:19.120Z,91.63
2018-09-10T01:17:19.045Z,91.73
2018-09-10T01:18:18.967Z,91.83
2018-09-10T01:19:18.910Z,91.73
2018-09-10T01:20:18.815Z,91.25
2018-09-10T01:21:18.744Z,90.96
2018-09-10T01:22:18.662Z,91.25
2018-09-10T01:23:18.584Z,90.96
2018-09-10T01:24:18.505Z,91.16
2018-09-10T01:25:18.430Z,91.92
2018-09-10T01:26:18.353Z,91.25
2018-09-10T01:27:18.275Z,89.53
2018-09-10T01:28:18.200Z,91.35
2018-09-10T01:29:18.123Z,91.06
2018-09-10T01:30:18.048Z,91.16
2018-09-10T01:31:17.969Z,92.21
2018-09-10T01:32:17.898Z,92.40
2018-09-10T01:33:17.816Z,92.49
2018-09-10T01:34:17.739Z,92.40
2018-09-10T01:35:17.662Z,91.83
2018-09-10T01:36:17.596Z,91.25
2018-09-10T01:37:17.512Z,91.92
2018-09-10T01:38:17.434Z,91.44
2018-09-10T01:39:17.355Z,91.35
2018-09-10T01:40:17.283Z,92.40
2018-09-10T01:41:17.204Z,91.25
2018-09-10T01:42:17.129Z,92.59
2018-09-10T01:43:17.057Z,91.25
2018-09-10T01:44:16.972Z,92.49
2018-09-10T01:45:16.896Z,91.83
2018-09-10T01:46:24.471Z,90.96
2018-09-10T01:48:21.172Z,91.35
2018-09-10T01:49:21.047Z,91.53
2018-09-10T01:50:20.970Z,90.58
2018-09-10T01:51:20.896Z,90.67
2018-09-10T01:52:20.817Z,90.96
2018-09-10T01:53:20.739Z,91.06
2018-09-10T01:54:20.662Z,91.35
2018-09-10T01:55:20.596Z,90.39
2018-09-10T01:56:20.510Z,91.16
2018-09-10T01:57:20.431Z,90.87
2018-09-10T01:58:20.356Z,91.44
2018-09-10T01:59:20.281Z,90.82
2018-09-10T02:00:20.204Z,89.77
2018-09-10T02:01:20.128Z,90.34
2018-09-10T02:02:20.049Z,89.29
2018-09-10T02:03:19.970Z,89.10
2018-09-10T02:04:19.904Z,88.43
2018-09-10T02:05:19.822Z,87.57
2018-09-10T02:06:19.742Z,88.24
2018-09-10T02:07:19.664Z,88.43
2018-09-10T02:08:19.587Z,88.34
2018-09-10T02:09:19.513Z,88.24
2018-09-10T02:10:19.432Z,88.15
2018-09-10T02:11:19.355Z,88.24
2018-09-10T02:12:19.278Z,88.43
2018-09-10T02:13:19.201Z,87.29
2018-09-10T02:14:19.125Z,87.76
2018-09-10T02:15:19.049Z,87.82
2018-09-10T02:16:18.971Z,87.24
2018-09-10T02:17:18.892Z,86.57
2018-09-10T02:18:18.816Z,86.71
2018-09-10T02:19:18.739Z,85.42
2018-09-10T02:20:18.694Z,86.33
2018-09-10T02:21:18.583Z,87.05
2018-09-10T02:22:18.507Z,87.09
2018-09-10T02:23:18.432Z,87.62
2018-09-10T02:24:18.354Z,88.48
2018-09-10T02:25:18.276Z,89.06
2018-09-10T02:26:18.199Z,88.53
2018-09-10T02:27:18.133Z,88.39
2018-09-10T02:28:18.043Z,87.62
2018-09-10T02:29:18.011Z,87.62
2018-09-10T02:30:17.890Z,86.71
2018-09-10T02:31:17.835Z,88.43
2018-09-10T02:32:17.735Z,88.53
2018-09-10T02:33:17.657Z,88.53
2018-09-10T02:34:17.600Z,89.01
2018-09-10T02:35:17.503Z,89.29
2018-09-10T02:36:17.430Z,88.62
2018-09-10T02:37:17.356Z,88.62
2018-09-10T02:38:17.275Z,89.20
2018-09-10T02:39:17.195Z,90.25
2018-09-10T02:40:17.121Z,89.87
2018-09-10T02:41:17.041Z,89.67
2018-09-10T02:42:16.964Z,88.91
2018-09-10T02:43:16.887Z,88.24
2018-09-10T02:44:16.809Z,89.39
2018-09-10T02:45:16.737Z,88.43
2018-09-10T02:46:16.657Z,89.20
2018-09-10T02:47:16.577Z,90.39
2018-09-10T02:48:16.501Z,90.25
2018-09-10T02:49:16.423Z,90.82
2018-09-10T02:50:16.347Z,89.77
2018-09-10T02:51:16.269Z,90.44
2018-09-10T02:52:16.192Z,90.63
2018-09-10T02:53:16.113Z,90.25
2018-09-10T02:54:16.039Z,89.96
2018-09-10T02:55:16.103Z,89.39
2018-09-10T02:56:15.883Z,89.25
2018-09-10T02:57:15.807Z,89.92
2018-09-10T02:58:15.728Z,88.77
2018-09-10T02:59:15.652Z,89.25
2018-09-10T03:00:15.579Z,89.25
2018-09-10T03:01:15.496Z,89.25
2018-09-10T03:02:15.419Z,87.62
2018-09-10T03:03:15.343Z,88.01
2018-09-10T03:04:15.266Z,88.10
2018-09-10T03:05:15.187Z,88.68
2018-09-10T03:06:15.111Z,88.87
2018-09-10T03:07:15.033Z,89.63
2018-09-10T03:08:14.956Z,89.92
2018-09-10T03:09:14.883Z,89.63
2018-09-10T03:10:14.799Z,89.82
2018-09-10T03:11:14.724Z,90.59
2018-09-10T03:12:14.646Z,90.01
2018-09-10T03:13:14.567Z,89.63
2018-09-10T03:14:14.504Z,89.34
2018-09-10T03:15:14.416Z,89.15
2018-09-10T03:16:14.338Z,89.15
2018-09-10T03:17:14.260Z,87.72
2018-09-10T03:18:14.184Z,88.39
2018-09-10T03:19:14.105Z,87.62
2018-09-10T03:20:14.028Z,88.39
2018-09-10T03:21:13.952Z,87.53
2018-09-10T03:22:13.874Z,86.63
2018-09-10T03:23:13.796Z,87.01
2018-09-10T03:24:13.778Z,87.68
2018-09-10T03:25:13.640Z,87.58
2018-09-10T03:26:13.563Z,88.44
2018-09-10T03:27:13.485Z,87.20
2018-09-10T03:28:13.411Z,87.48
2018-09-10T03:29:13.330Z,87.96
2018-09-10T03:30:13.257Z,87.39
2018-09-10T03:31:13.178Z,87.62
2018-09-10T03:32:13.111Z,87.62
2018-09-10T03:33:13.021Z,88.20
2018-09-10T03:34:12.943Z,88.44
2018-09-10T03:35:12.865Z,88.77
2018-09-10T03:36:12.787Z,86.91
2018-09-10T03:37:12.712Z,87.20
2018-09-10T03:38:12.636Z,86.82
2018-09-10T03:39:12.555Z,86.05
2018-09-10T03:40:12.478Z,85.48
2018-09-10T03:41:12.400Z,87.10
2018-09-10T03:42:12.326Z,86.63
2018-09-10T03:43:12.245Z,88.34
2018-09-10T03:44:12.167Z,86.91
2018-09-10T03:45:12.090Z,85.86
2018-09-10T03:46:12.030Z,85.67
2018-09-10T03:47:11.945Z,86.15
2018-09-10T03:48:11.862Z,87.48
2018-09-10T03:49:11.779Z,87.20
2018-09-10T03:50:11.703Z,87.58
2018-09-10T03:51:11.625Z,86.63
2018-09-10T03:52:11.551Z,86.15
2018-09-10T03:53:11.472Z,86.53
2018-09-10T03:54:11.390Z,87.10
2018-09-10T03:55:11.314Z,86.82
2018-09-10T03:56:11.238Z,86.43
2018-09-10T03:57:11.161Z,86.63
2018-09-10T03:58:11.081Z,86.53
2018-09-10T03:59:11.005Z,86.24
2018-09-10T04:00:10.929Z,86.82
2018-09-10T04:01:10.851Z,85.67
2018-09-10T04:02:10.770Z,86.24
2018-09-10T04:03:10.697Z,85.86
2018-09-10T04:04:10.650Z,86.53
2018-09-10T04:05:10.538Z,85.10
2018-09-10T04:06:10.460Z,85.77
2018-09-10T04:07:10.382Z,86.24
2018-09-10T04:08:10.307Z,85.48
2018-09-10T04:09:10.225Z,85.10
2018-09-10T04:10:10.151Z,84.05
2018-09-10T04:11:10.075Z,83.09
2018-09-10T04:12:10.009Z,83.95
2018-09-10T04:13:09.918Z,85.38
2018-09-10T04:14:09.839Z,85.96
2018-09-10T04:15:09.761Z,87.10
2018-09-10T04:16:09.687Z,85.86
2018-09-10T04:17:09.649Z,86.63
2018-09-10T04:18:09.527Z,85.77
2018-09-10T04:19:09.450Z,87.01
2018-09-10T04:20:09.373Z,86.63
2018-09-10T04:21:09.294Z,86.43
2018-09-10T04:22:09.219Z,86.43
2018-09-10T04:23:09.138Z,86.82
2018-09-10T04:24:09.061Z,87.29
2018-09-10T04:25:08.984Z,87.39
2018-09-10T04:26:09.032Z,86.91
2018-09-10T04:27:08.829Z,86.91
2018-09-10T04:28:08.751Z,86.15
2018-09-10T04:29:08.674Z,86.34
2018-09-10T04:30:08.645Z,85.77
2018-09-10T04:31:08.529Z,86.91
2018-09-10T04:32:08.442Z,87.10
2018-09-10T04:33:08.361Z,87.48
2018-09-10T04:34:08.285Z,87.58
2018-09-10T04:35:08.207Z,86.72
2018-09-10T04:36:08.138Z,86.72
2018-09-10T04:37:08.057Z,86.63
2018-09-10T04:38:07.974Z,86.91
2018-09-10T04:39:07.900Z,86.72
2018-09-10T04:40:07.818Z,86.91
2018-09-10T04:41:07.740Z,86.82
2018-09-10T04:42:07.700Z,86.43
2018-09-10T04:43:07.588Z,86.63
2018-09-10T04:44:07.516Z,87.68
2018-09-10T04:45:07.431Z,87.20
2018-09-10T04:46:07.352Z,86.91
2018-09-10T04:47:07.276Z,87.20
2018-09-10T04:48:07.200Z,87.01
2018-09-10T04:49:07.120Z,86.91
2018-09-10T04:50:07.041Z,86.82
2018-09-10T04:51:06.964Z,86.43
2018-09-10T04:52:06.939Z,86.15
2018-09-10T04:53:06.807Z,87.58
2018-09-10T04:54:06.732Z,86.63
2018-09-10T04:55:06.649Z,87.01
2018-09-10T04:56:06.577Z,86.24
2018-09-10T04:57:06.494Z,86.34
2018-09-10T04:58:06.522Z,84.81
2018-09-10T04:59:06.351Z,85.67
2018-09-10T05:00:06.264Z,85.44
2018-09-10T05:01:06.182Z,85.25
2018-09-10T05:02:06.115Z,84.10
2018-09-10T05:03:06.028Z,84.48
2018-09-10T05:04:05.949Z,85.25
2018-09-10T05:05:05.874Z,84.96
2018-09-10T05:06:05.792Z,84.58
2018-09-10T05:07:05.715Z,85.34
2018-09-10T05:08:05.637Z,84.86
2018-09-10T05:09:05.562Z,84.77
2018-09-10T05:10:05.560Z,84.96
2018-09-10T05:11:05.413Z,85.82
2018-09-10T05:12:05.336Z,84.77
2018-09-10T05:13:05.264Z,86.10
2018-09-10T05:14:05.169Z,85.77
2018-09-10T05:15:05.091Z,85.96
2018-09-10T05:16:05.016Z,85.38
2018-09-10T05:17:04.936Z,86.10
2018-09-10T05:18:04.857Z,85.58
2018-09-10T05:19:04.785Z,85.29
2018-09-10T05:20:04.701Z,86.10
2018-09-10T05:21:04.623Z,85.00
2018-09-10T05:22:04.610Z,86.15
2018-09-10T05:23:04.469Z,85.86
2018-09-10T05:24:04.390Z,85.48
2018-09-10T05:25:04.313Z,86.15
2018-09-10T05:26:04.236Z,85.00
2018-09-10T05:27:04.165Z,85.38
2018-09-10T05:28:04.081Z,86.15
2018-09-10T05:29:04.002Z,85.38
2018-09-10T05:30:03.922Z,85.96
2018-09-10T05:31:03.843Z,85.58
2018-09-10T05:32:03.800Z,85.48
2018-09-10T05:33:03.699Z,84.48
2018-09-10T05:34:03.634Z,84.81
2018-09-10T05:35:03.532Z,85.96
2018-09-10T05:36:03.455Z,85.19
2018-09-10T05:37:03.377Z,84.81
2018-09-10T05:38:03.301Z,85.29
2018-09-10T05:39:03.222Z,84.43
2018-09-10T05:40:03.154Z,85.00
2018-09-10T05:41:03.068Z,84.43
2018-09-10T05:42:02.997Z,85.48
2018-09-10T05:43:02.911Z,86.24
2018-09-10T05:44:02.833Z,84.72
2018-09-10T05:45:02.755Z,84.81
2018-09-10T05:46:02.684Z,84.62
2018-09-10T05:47:02.599Z,83.95
2018-09-10T05:48:02.523Z,84.23
2018-09-10T05:49:02.443Z,84.72
2018-09-10T05:50:02.366Z,85.77
2018-09-10T05:51:02.288Z,85.00
2018-09-10T05:52:02.212Z,85.19
2018-09-10T05:53:02.133Z,86.34
2018-09-10T05:54:02.057Z,84.52
2018-09-10T05:55:01.979Z,85.48
2018-09-10T05:56:01.903Z,84.43
2018-09-10T05:57:01.825Z,84.52
2018-09-10T05:58:01.744Z,85.10
2018-09-10T05:59:01.668Z,84.81
2018-09-10T06:00:01.589Z,84.62
2018-09-10T06:01:01.515Z,84.76
2018-09-10T06:02:01.440Z,83.61
2018-09-10T06:03:01.357Z,84.95
2018-09-10T06:04:01.279Z,86.29
2018-09-10T06:05:01.206Z,85.42
2018-09-10T06:06:01.126Z,84.85
2018-09-10T06:07:01.046Z,85.42
2018-09-10T06:08:00.970Z,84.95
2018-09-10T06:09:00.892Z,85.05
2018-09-10T06:10:00.827Z,85.62
2018-09-10T06:11:00.735Z,85.90
2018-09-10T06:12:00.660Z,86.38
2018-09-10T06:13:00.579Z,86.67
2018-09-10T06:14:00.503Z,86.47
2018-09-10T06:15:00.433Z,84.85
2018-09-10T06:16:00.352Z,84.47
2018-09-10T06:17:00.275Z,85.85
2018-09-10T06:18:00.195Z,86.86
2018-09-10T06:19:00.127Z,87.48
2018-09-10T06:20:00.039Z,86.61
2018-09-10T06:20:59.961Z,87.19
2018-09-10T06:21:59.886Z,87.09
2018-09-10T06:22:59.807Z,86.23
2018-09-10T06:23:59.728Z,87.00
2018-09-10T06:24:59.651Z,87.00
2018-09-10T06:25:59.578Z,87.09
2018-09-10T06:26:59.497Z,87.00
2018-09-10T06:27:59.422Z,86.52
2018-09-10T06:28:59.342Z,86.14
2018-09-10T06:29:59.277Z,86.71
2018-09-10T06:30:59.189Z,87.09
2018-09-10T06:31:59.113Z,87.81
2018-09-10T06:32:59.038Z,86.71
2018-09-10T06:33:58.970Z,87.09
2018-09-10T06:34:58.887Z,86.90
2018-09-10T06:35:58.809Z,87.81
2018-09-10T06:36:58.770Z,86.08
2018-09-10T06:37:58.654Z,86.66
2018-09-10T06:38:58.578Z,86.47
2018-09-10T06:39:58.499Z,86.94
2018-09-10T06:40:58.440Z,86.94
2018-09-10T06:41:58.347Z,85.89
2018-09-10T06:42:58.266Z,87.62
2018-09-10T06:43:58.195Z,88.38
2018-09-10T06:44:58.113Z,87.71
2018-09-10T06:45:58.035Z,87.33
2018-09-10T06:46:57.959Z,87.90
2018-09-10T06:47:57.883Z,86.76
2018-09-10T06:48:57.805Z,86.94
2018-09-10T06:49:57.730Z,87.52
2018-09-10T06:50:57.652Z,87.52
2018-09-10T06:51:57.577Z,86.99
2018-09-10T06:52:57.498Z,86.90
2018-09-10T06:53:57.422Z,87.66
2018-09-10T06:54:57.345Z,87.37
2018-09-10T06:55:57.269Z,87.08
2018-09-10T06:56:57.193Z,87.66
2018-09-10T06:57:57.114Z,87.76
2018-09-10T06:58:57.039Z,88.52
2018-09-10T06:59:56.963Z,88.33
2018-09-10T07:00:56.890Z,88.33
2018-09-10T07:01:56.808Z,88.13
2018-09-10T07:02:56.739Z,89.29
2018-09-10T07:03:56.660Z,89.58
2018-09-10T07:04:56.579Z,88.95
2018-09-10T07:05:56.503Z,89.90
2018-09-10T07:06:56.426Z,88.56
2018-09-10T07:07:56.354Z,88.66
2018-09-10T07:08:56.273Z,89.72
2018-09-10T07:09:56.202Z,89.43
2018-09-10T07:10:56.122Z,90.00
2018-09-10T07:11:56.046Z,89.81
2018-09-10T07:12:55.971Z,89.90
2018-09-10T07:13:55.894Z,88.95
2018-09-10T07:14:55.820Z,88.95
2018-09-10T07:15:55.740Z,88.66
2018-09-10T07:16:55.665Z,89.33
2018-09-10T07:17:55.590Z,89.62
2018-09-10T07:18:55.574Z,89.76
2018-09-10T07:19:55.437Z,89.95
2018-09-10T07:20:55.359Z,89.76
2018-09-10T07:21:55.282Z,90.05
2018-09-10T07:22:55.207Z,89.76
2018-09-10T07:23:55.131Z,89.66
2018-09-10T07:24:55.054Z,89.66
2018-09-10T07:25:54.983Z,88.80
2018-09-10T07:26:54.906Z,89.57
2018-09-10T07:27:54.830Z,89.66
2018-09-10T07:28:54.752Z,88.80
2018-09-10T07:29:54.676Z,88.90
2018-09-10T07:30:54.601Z,89.04
2018-09-10T07:31:54.524Z,88.65
2018-09-10T07:32:54.451Z,88.65
2018-09-10T07:33:54.373Z,89.90
2018-09-10T07:34:54.300Z,90.09
2018-09-10T07:35:54.224Z,90.00
2018-09-10T07:36:54.147Z,90.38
2018-09-10T07:37:54.070Z,90.86
2018-09-10T07:38:53.997Z,90.19
2018-09-10T07:39:53.920Z,90.09
2018-09-10T07:40:53.843Z,90.90
2018-09-10T07:41:53.768Z,90.81
2018-09-10T07:42:53.692Z,90.71
2018-09-10T07:43:53.692Z,90.90
2018-09-10T07:44:53.560Z,90.81
2018-09-10T07:45:53.468Z,90.52
2018-09-10T07:48:24.949Z,90.81
2018-09-10T07:49:24.823Z,91.28
2018-09-10T07:51:28.682Z,91.38
2018-09-10T07:52:28.577Z,91.05
2018-09-10T07:54:32.478Z,91.52
2018-09-10T07:55:32.291Z,91.09
2018-09-10T07:57:36.104Z,92.29
2018-09-10T07:58:36.023Z,92.19
2018-09-10T08:00:40.041Z,92.29
2018-09-10T08:01:39.856Z,91.33
2018-09-10T08:03:43.662Z,92.19
2018-09-10T08:04:43.589Z,92.48
2018-09-10T08:05:43.509Z,91.57
2018-09-10T08:06:43.434Z,90.61
2018-09-10T08:07:43.359Z,92.91
2018-09-10T08:08:43.285Z,92.82
2018-09-10T08:09:43.242Z,93.20
2018-09-10T08:10:43.133Z,94.21
2018-09-10T08:11:43.059Z,93.49
2018-09-10T08:12:42.985Z,93.87
2018-09-10T08:13:42.911Z,94.01
2018-09-10T08:14:42.840Z,93.63
2018-09-10T08:15:42.758Z,93.54
2018-09-10T08:16:42.737Z,94.11
2018-09-10T08:17:42.610Z,94.31
2018-09-10T08:18:42.535Z,94.21
2018-09-10T08:19:42.462Z,95.07
2018-09-10T08:20:42.387Z,94.69
2018-09-10T08:21:42.313Z,94.78
2018-09-10T08:22:42.237Z,94.59
2018-09-10T08:23:42.162Z,94.11
2018-09-10T08:24:42.091Z,96.22
2018-09-10T08:25:42.014Z,94.49
2018-09-10T08:26:41.938Z,94.69
2018-09-10T08:27:41.874Z,97.42
2018-09-10T08:28:41.795Z,95.84
2018-09-10T08:29:41.720Z,95.79
2018-09-10T08:30:41.642Z,94.93
2018-09-10T08:31:41.567Z,94.98
2018-09-10T08:32:41.497Z,94.45
2018-09-10T08:33:41.417Z,94.35
2018-09-10T08:34:41.344Z,94.45
2018-09-10T08:35:41.267Z,93.87
2018-09-10T08:36:41.194Z,94.73
2018-09-10T08:37:41.125Z,94.73
2018-09-10T08:38:41.109Z,94.06
2018-09-10T08:39:40.976Z,94.73
2018-09-10T08:40:40.897Z,94.64
2018-09-10T08:41:40.828Z,94.98
2018-09-10T08:42:40.775Z,96.22
2018-09-10T08:43:40.694Z,95.94
2018-09-10T08:44:40.602Z,95.17
2018-09-10T08:45:40.527Z,96.80
2018-09-10T08:46:40.452Z,96.22
2018-09-10T08:47:40.377Z,96.56
2018-09-10T08:48:40.305Z,97.52
2018-09-10T08:49:40.230Z,96.56
2018-09-10T08:50:40.156Z,96.47
2018-09-10T08:51:40.085Z,96.75
2018-09-10T08:52:40.014Z,95.98
2018-09-10T08:53:39.941Z,96.27
2018-09-10T08:54:40.135Z,96.47
2018-09-10T08:55:40.065Z,95.89
2018-09-10T08:56:39.714Z,95.02
2018-09-10T08:57:39.643Z,95.70
2018-09-10T08:58:39.566Z,95.79
2018-09-10T08:59:39.489Z,95.89
2018-09-10T09:00:39.424Z,95.31
2018-09-10T09:01:39.349Z,93.19
2018-09-10T09:02:39.271Z,95.07
2018-09-10T09:03:39.208Z,96.03
2018-09-10T09:04:39.129Z,95.26
2018-09-10T09:05:39.053Z,96.94
2018-09-10T09:06:38.977Z,96.66
2018-09-10T09:07:38.907Z,96.89
2018-09-10T09:08:38.831Z,96.89
2018-09-10T09:09:38.759Z,95.94
2018-09-10T09:10:38.698Z,95.64
2018-09-10T09:11:38.611Z,96.12
2018-09-10T09:12:38.541Z,96.32
2018-09-10T09:13:38.467Z,96.32
2018-09-10T09:14:38.388Z,95.94
2018-09-10T09:15:38.321Z,95.94
2018-09-10T09:16:38.243Z,96.42
2018-09-10T09:17:38.172Z,96.12
2018-09-10T09:18:38.124Z,96.12
2018-09-10T09:19:38.027Z,97.09
2018-09-10T09:20:37.955Z,95.94
2018-09-10T09:21:37.877Z,96.70
2018-09-10T09:22:37.803Z,95.36
2018-09-10T09:23:37.770Z,96.66
2018-09-10T09:24:37.657Z,96.56
2018-09-10T09:25:37.592Z,96.56
2018-09-10T09:26:37.514Z,96.37
2018-09-10T09:27:37.460Z,96.37
2018-09-10T09:28:37.367Z,96.17
2018-09-10T09:29:37.344Z,95.98
2018-09-10T09:30:37.220Z,95.79
2018-09-10T09:31:37.149Z,95.16
2018-09-10T09:32:37.080Z,95.36
2018-09-10T09:33:37.006Z,93.52
2018-09-10T09:34:36.934Z,94.20
2018-09-10T09:35:36.859Z,95.45
2018-09-10T09:36:36.786Z,96.03
2018-09-10T09:37:36.712Z,94.87
2018-09-10T09:38:36.638Z,94.39
2018-09-10T09:39:36.565Z,94.87
2018-09-10T09:40:36.496Z,93.91
2018-09-10T09:41:36.422Z,94.87
2018-09-10T09:42:36.348Z,95.16
2018-09-10T09:43:36.282Z,96.12
2018-09-10T09:44:36.204Z,95.11
2018-09-10T09:45:36.130Z,95.54
2018-09-10T09:46:36.063Z,94.96
2018-09-10T09:47:35.987Z,95.06
2018-09-10T09:48:35.919Z,95.36
2018-09-10T09:49:35.847Z,96.03
2018-09-10T09:50:35.771Z,94.78
2018-09-10T09:51:35.697Z,94.29
2018-09-10T09:52:35.623Z,94.87
2018-09-10T09:53:35.553Z,95.16
2018-09-10T09:54:35.486Z,95.69
2018-09-10T09:55:35.408Z,95.16
2018-09-10T09:56:35.368Z,94.63
2018-09-10T09:57:35.265Z,94.34
2018-09-10T09:58:35.195Z,95.01
2018-09-10T09:59:35.150Z,94.63
2018-09-10T10:00:35.046Z,94.24
2018-09-10T10:01:34.981Z,95.31
2018-09-10T10:02:34.901Z,95.21
2018-09-10T10:03:34.836Z,95.01
2018-09-10T10:04:34.827Z,95.11
2018-09-10T10:05:34.690Z,95.50
2018-09-10T10:06:34.616Z,93.62
2018-09-10T10:07:34.541Z,93.62
2018-09-10T10:08:34.478Z,92.84
2018-09-10T10:09:34.399Z,94.29
2018-09-10T10:10:34.379Z,94.20
2018-09-10T10:11:34.299Z,95.06
2018-09-10T10:12:34.238Z,95.16
2018-09-10T10:13:34.111Z,94.96
2018-09-10T10:14:34.091Z,95.16
2018-09-10T10:15:33.968Z,94.00
2018-09-10T10:16:34.027Z,94.24
2018-09-10T10:17:33.892Z,94.43
2018-09-10T10:18:33.753Z,92.69
2018-09-10T10:19:33.681Z,90.67
2018-09-10T10:20:33.619Z,90.42
2018-09-10T10:21:33.557Z,91.67
2018-09-10T10:22:33.467Z,90.81
2018-09-10T10:23:33.396Z,89.36
2018-09-10T10:24:33.333Z,86.46
2018-09-10T10:25:33.265Z,85.88
2018-09-10T10:26:33.182Z,88.10
2018-09-10T10:27:33.112Z,87.23
2018-09-10T10:28:33.040Z,84.38
2018-09-10T10:29:32.974Z,85.83
2018-09-10T10:30:32.902Z,89.11
2018-09-10T10:31:32.827Z,86.89
2018-09-10T10:32:32.762Z,80.71
2018-09-10T10:33:32.701Z,80.03
2018-09-10T10:34:32.616Z,81.04
2018-09-10T10:35:32.548Z,76.68
2018-09-10T10:36:32.473Z,79.39
2018-09-10T10:37:32.408Z,77.75
2018-09-10T10:38:32.329Z,79.68
2018-09-10T10:39:32.259Z,79.43
2018-09-10T10:40:32.188Z,75.71
2018-09-10T10:41:32.122Z,76.04
2018-09-10T10:42:32.050Z,73.63
2018-09-10T10:43:31.978Z,72.66
2018-09-10T10:44:31.908Z,67.24
2018-09-10T10:45:31.842Z,65.59
2018-09-10T10:46:31.765Z,63.21
2018-09-10T10:47:31.799Z,62.82
2018-09-10T10:48:31.626Z,62.92
2018-09-10T10:49:31.565Z,62.82
2018-09-10T10:50:31.484Z,63.49
2018-09-10T10:51:31.416Z,64.56
2018-09-10T10:52:31.351Z,64.69
2018-09-10T10:53:31.285Z,64.79
2018-09-10T10:54:31.207Z,66.43
2018-09-10T10:55:31.150Z,67.02
2018-09-10T10:56:31.066Z,66.14
2018-09-10T10:57:30.998Z,67.05
2018-09-10T10:58:30.931Z,70.83
2018-09-10T10:59:30.859Z,61.52
2018-09-10T11:00:30.788Z,61.52
2018-09-10T11:01:30.721Z,59.69
2018-09-10T11:02:30.650Z,58.36
2018-09-10T11:03:30.579Z,57.39
2018-09-10T11:04:30.509Z,57.09
2018-09-10T11:05:30.443Z,57.68
2018-09-10T11:06:30.374Z,59.23
2018-09-10T11:07:30.303Z,58.36
2018-09-10T11:08:30.244Z,58.19
2018-09-10T11:09:30.166Z,58.09
2018-09-10T11:10:30.101Z,57.12
2018-09-10T11:11:30.031Z,55.18
2018-09-10T11:12:29.956Z,55.08
2018-09-10T11:13:29.888Z,55.18
2018-09-10T11:14:29.819Z,55.47
2018-09-10T11:15:29.751Z,56.45
2018-09-10T11:16:29.732Z,57.61
2018-09-10T11:17:29.614Z,58.00
2018-09-10T11:18:29.545Z,58.22
2018-09-10T11:19:29.477Z,54.41
2018-09-10T11:20:29.418Z,54.41
2018-09-10T11:21:29.344Z,54.90
2018-09-10T11:22:29.277Z,54.99
2018-09-10T11:23:29.210Z,54.99
2018-09-10T11:24:29.152Z,54.11
2018-09-10T11:25:29.076Z,53.92
2018-09-10T11:26:28.999Z,53.95
2018-09-10T11:27:28.935Z,53.08
2018-09-10T11:28:28.865Z,52.98
2018-09-10T11:29:28.802Z,54.44
2018-09-10T11:30:28.726Z,53.37
2018-09-10T11:31:28.659Z,53.27
2018-09-10T11:32:28.591Z,53.37
2018-09-10T11:33:28.526Z,53.27
2018-09-10T11:34:28.457Z,53.08
2018-09-10T11:35:28.392Z,52.40
2018-09-10T11:36:28.319Z,52.30
2018-09-10T11:37:28.256Z,51.59
2018-09-10T11:38:28.188Z,52.30
2018-09-10T11:39:28.115Z,51.50
2018-09-10T11:40:28.055Z,52.20
2018-09-10T11:41:27.991Z,51.81
2018-09-10T11:42:27.913Z,50.94
2018-09-10T11:43:27.843Z,51.06
2018-09-10T11:44:27.780Z,51.75
2018-09-10T11:45:27.715Z,50.21
2018-09-10T11:46:27.684Z,51.28
2018-09-10T11:47:27.589Z,48.97
2018-09-10T11:48:27.508Z,48.68
2018-09-10T11:49:27.441Z,48.58
2018-09-10T11:50:27.381Z,48.51
2018-09-10T11:51:27.312Z,47.47
2018-09-10T11:52:27.243Z,47.78
2018-09-10T11:53:27.181Z,46.83
2018-09-10T11:54:27.116Z,46.15
2018-09-10T11:55:27.055Z,44.98
2018-09-10T11:56:26.979Z,45.00
2018-09-10T11:57:26.918Z,45.78
2018-09-10T11:58:26.852Z,44.81
2018-09-10T11:59:26.784Z,43.95
2018-09-10T12:00:26.721Z,43.95
2018-09-10T12:01:26.659Z,43.25
2018-09-10T12:02:26.595Z,43.44
2018-09-10T12:03:26.524Z,43.91
2018-09-10T12:04:26.461Z,44.13
2018-09-10T12:05:26.397Z,44.13
2018-09-10T12:06:26.353Z,44.05
2018-09-10T12:07:26.268Z,41.69
2018-09-10T12:08:26.258Z,41.99
2018-09-10T12:09:26.142Z,42.30
2018-09-10T12:10:26.084Z,41.71
2018-09-10T12:11:26.028Z,41.52
2018-09-10T12:12:25.953Z,43.10
2018-09-10T12:13:25.900Z,41.73
2018-09-10T12:14:25.819Z,43.32
2018-09-10T12:15:25.756Z,41.67
2018-09-10T12:16:25.696Z,40.60
2018-09-10T12:17:25.633Z,40.72
2018-09-10T12:18:25.565Z,40.35
2018-09-10T12:19:25.513Z,39.98
2018-09-10T12:20:25.445Z,37.91
2018-09-10T12:21:25.417Z,37.32
2018-09-10T12:22:25.328Z,38.32
2018-09-10T12:23:25.258Z,38.20
2018-09-10T12:24:25.189Z,37.52
2018-09-10T12:25:25.138Z,41.62
2018-09-10T12:26:25.070Z,39.76
2018-09-10T12:27:25.001Z,41.54
2018-09-10T12:28:24.938Z,39.98
2018-09-10T12:29:24.877Z,39.78
2018-09-10T12:30:24.814Z,40.09
2018-09-10T12:31:24.753Z,39.41
2018-09-10T12:32:24.759Z,38.16
2018-09-10T12:33:24.626Z,36.79
2018-09-10T12:34:24.564Z,36.00
2018-09-10T12:35:24.503Z,36.41
2018-09-10T12:36:24.442Z,36.33
2018-09-10T12:37:24.380Z,35.14
2018-09-10T12:38:24.318Z,35.99
2018-09-10T12:39:24.323Z,35.87
2018-09-10T12:40:24.194Z,37.22
2018-09-10T12:41:24.133Z,37.21
2018-09-10T12:42:24.069Z,37.11
2018-09-10T12:43:24.013Z,37.71
2018-09-10T12:44:23.949Z,37.40
2018-09-10T12:45:23.886Z,35.77
2018-09-10T12:46:23.874Z,35.89
2018-09-10T12:47:23.764Z,36.40
2018-09-10T12:48:23.699Z,36.20
2018-09-10T12:49:23.636Z,36.59
2018-09-10T12:50:23.576Z,40.14
2018-09-10T12:51:23.513Z,38.82
2018-09-10T12:52:23.451Z,38.46
2018-09-10T12:53:23.393Z,35.72
2018-09-10T12:54:23.327Z,31.81
2018-09-10T12:55:23.267Z,32.01
2018-09-10T12:56:23.203Z,31.20
2018-09-10T12:57:23.161Z,31.29
2018-09-10T12:58:23.081Z,31.74
2018-09-10T12:59:23.022Z,33.38